sensor_id;sensor_type;location;lat;lon;timestamp;P1;durP1;ratioP1;P2;durP2;ratioP2
17193;SDS011;8713;48.388;10.928;2023-06-22T00:00:14;8.32;;;4.13;;
17193;SDS011;8713;48.388;10.928;2023-06-22T00:01:23;9.43;;;4.20;;
17193;SDS011;8713;48.388;10.928;2023-06-22T00:02:34;8.90;;;3.85;;
17193;SDS011;8713;48.388;10.928;2023-06-22T00:03:44;7.65;;;4.45;;
17193;SDS011;8713;48.388;10.928;2023-06-22T00:04:54;9.27;;;3.95;;
17193;SDS011;8713;48.388;10.928;2023-06-22T00:06:03;7.18;;;4.15;;
17193;SDS011;8713;48.388;10.928;2023-06-22T00:07:12;9.55;;;3.78;;
17193;SDS011;8713;48.388;10.928;2023-06-22T00:08:22;13.05;;;3.90;;
17193;SDS011;8713;48.388;10.928;2023-06-22T00:09:31;9.55;;;4.20;;
17193;SDS011;8713;48.388;10.928;2023-06-22T00:10:42;8.32;;;3.90;;
17193;SDS011;8713;48.388;10.928;2023-06-22T00:11:52;9.05;;;4.07;;
17193;SDS011;8713;48.388;10.928;2023-06-22T00:13:02;7.25;;;4.10;;
17193;SDS011;8713;48.388;10.928;2023-06-22T00:14:12;8.65;;;4.50;;
17193;SDS011;8713;48.388;10.928;2023-06-22T00:15:21;8.63;;;4.10;;
17193;SDS011;8713;48.388;10.928;2023-06-22T00:16:32;8.52;;;4.13;;
17193;SDS011;8713;48.388;10.928;2023-06-22T00:17:41;9.07;;;4.18;;
17193;SDS011;8713;48.388;10.928;2023-06-22T00:18:51;7.15;;;3.50;;
17193;SDS011;8713;48.388;10.928;2023-06-22T00:20:00;8.93;;;3.80;;
17193;SDS011;8713;48.388;10.928;2023-06-22T00:21:10;10.05;;;3.97;;
17193;SDS011;8713;48.388;10.928;2023-06-22T00:22:21;6.97;;;3.67;;
17193;SDS011;8713;48.388;10.928;2023-06-22T00:23:37;8.23;;;4.15;;
17193;SDS011;8713;48.388;10.928;2023-06-22T00:24:46;7.40;;;3.78;;
17193;SDS011;8713;48.388;10.928;2023-06-22T00:25:56;7.13;;;3.88;;
17193;SDS011;8713;48.388;10.928;2023-06-22T00:27:06;8.18;;;3.88;;
17193;SDS011;8713;48.388;10.928;2023-06-22T00:28:16;6.93;;;3.50;;
17193;SDS011;8713;48.388;10.928;2023-06-22T00:29:26;10.75;;;4.03;;
17193;SDS011;8713;48.388;10.928;2023-06-22T00:30:39;10.00;;;3.80;;
17193;SDS011;8713;48.388;10.928;2023-06-22T00:31:49;7.32;;;3.70;;
17193;SDS011;8713;48.388;10.928;2023-06-22T00:32:58;7.60;;;3.67;;
17193;SDS011;8713;48.388;10.928;2023-06-22T00:34:08;5.85;;;3.80;;
17193;SDS011;8713;48.388;10.928;2023-06-22T00:35:18;7.88;;;3.95;;
17193;SDS011;8713;48.388;10.928;2023-06-22T00:36:28;10.48;;;3.58;;
17193;SDS011;8713;48.388;10.928;2023-06-22T00:37:37;7.55;;;3.85;;
17193;SDS011;8713;48.388;10.928;2023-06-22T00:38:49;6.25;;;3.60;;
17193;SDS011;8713;48.388;10.928;2023-06-22T00:39:59;6.65;;;3.50;;
17193;SDS011;8713;48.388;10.928;2023-06-22T00:41:08;9.65;;;3.65;;
17193;SDS011;8713;48.388;10.928;2023-06-22T00:42:18;7.82;;;4.03;;
17193;SDS011;8713;48.388;10.928;2023-06-22T00:43:29;7.30;;;3.70;;
17193;SDS011;8713;48.388;10.928;2023-06-22T00:44:39;7.05;;;3.28;;
17193;SDS011;8713;48.388;10.928;2023-06-22T00:45:49;8.75;;;3.95;;
17193;SDS011;8713;48.388;10.928;2023-06-22T00:47:00;7.50;;;3.42;;
17193;SDS011;8713;48.388;10.928;2023-06-22T00:48:09;7.85;;;3.63;;
17193;SDS011;8713;48.388;10.928;2023-06-22T00:49:19;10.63;;;3.92;;
17193;SDS011;8713;48.388;10.928;2023-06-22T00:50:30;8.00;;;3.45;;
17193;SDS011;8713;48.388;10.928;2023-06-22T00:51:44;6.53;;;3.35;;
17193;SDS011;8713;48.388;10.928;2023-06-22T00:52:55;6.45;;;3.35;;
17193;SDS011;8713;48.388;10.928;2023-06-22T00:54:07;9.75;;;3.50;;
17193;SDS011;8713;48.388;10.928;2023-06-22T00:55:17;7.78;;;3.17;;
17193;SDS011;8713;48.388;10.928;2023-06-22T00:56:28;10.50;;;3.83;;
17193;SDS011;8713;48.388;10.928;2023-06-22T00:57:39;7.28;;;3.60;;
17193;SDS011;8713;48.388;10.928;2023-06-22T00:58:49;6.97;;;3.60;;
17193;SDS011;8713;48.388;10.928;2023-06-22T01:00:01;5.22;;;3.22;;
17193;SDS011;8713;48.388;10.928;2023-06-22T01:01:18;9.18;;;3.78;;
17193;SDS011;8713;48.388;10.928;2023-06-22T01:02:32;8.57;;;3.25;;
17193;SDS011;8713;48.388;10.928;2023-06-22T01:03:41;6.88;;;3.67;;
17193;SDS011;8713;48.388;10.928;2023-06-22T01:04:51;7.55;;;3.28;;
17193;SDS011;8713;48.388;10.928;2023-06-22T01:06:08;5.57;;;3.40;;
17193;SDS011;8713;48.388;10.928;2023-06-22T01:07:49;7.82;;;3.58;;
17193;SDS011;8713;48.388;10.928;2023-06-22T01:09:06;5.68;;;3.10;;
17193;SDS011;8713;48.388;10.928;2023-06-22T01:10:26;6.35;;;3.90;;
17193;SDS011;8713;48.388;10.928;2023-06-22T01:11:45;7.85;;;3.47;;
17193;SDS011;8713;48.388;10.928;2023-06-22T01:13:18;6.72;;;3.08;;
17193;SDS011;8713;48.388;10.928;2023-06-22T01:15:25;7.78;;;3.17;;
17193;SDS011;8713;48.388;10.928;2023-06-22T01:16:44;6.65;;;3.20;;
17193;SDS011;8713;48.388;10.928;2023-06-22T01:17:54;8.30;;;3.53;;
17193;SDS011;8713;48.388;10.928;2023-06-22T01:19:09;6.15;;;3.40;;
17193;SDS011;8713;48.388;10.928;2023-06-22T01:20:34;5.88;;;2.80;;
17193;SDS011;8713;48.388;10.928;2023-06-22T01:21:44;6.45;;;3.42;;
17193;SDS011;8713;48.388;10.928;2023-06-22T01:24:19;6.35;;;3.28;;
17193;SDS011;8713;48.388;10.928;2023-06-22T01:25:45;5.40;;;3.13;;
17193;SDS011;8713;48.388;10.928;2023-06-22T01:27:00;7.00;;;3.28;;
17193;SDS011;8713;48.388;10.928;2023-06-22T01:29:52;5.55;;;3.10;;
17193;SDS011;8713;48.388;10.928;2023-06-22T01:31:10;5.25;;;3.20;;
17193;SDS011;8713;48.388;10.928;2023-06-22T01:32:20;6.78;;;3.20;;
17193;SDS011;8713;48.388;10.928;2023-06-22T01:33:34;4.50;;;3.00;;
17193;SDS011;8713;48.388;10.928;2023-06-22T01:34:46;8.52;;;3.38;;
17193;SDS011;8713;48.388;10.928;2023-06-22T01:35:57;6.28;;;3.15;;
17193;SDS011;8713;48.388;10.928;2023-06-22T01:37:06;8.43;;;3.40;;
17193;SDS011;8713;48.388;10.928;2023-06-22T01:38:17;5.93;;;3.80;;
17193;SDS011;8713;48.388;10.928;2023-06-22T01:39:28;6.70;;;3.88;;
17193;SDS011;8713;48.388;10.928;2023-06-22T01:40:38;8.48;;;4.18;;
17193;SDS011;8713;48.388;10.928;2023-06-22T01:41:47;8.50;;;4.28;;
17193;SDS011;8713;48.388;10.928;2023-06-22T01:42:59;6.55;;;3.83;;
17193;SDS011;8713;48.388;10.928;2023-06-22T01:44:10;7.15;;;3.63;;
17193;SDS011;8713;48.388;10.928;2023-06-22T01:45:20;5.88;;;3.33;;
17193;SDS011;8713;48.388;10.928;2023-06-22T01:46:30;5.68;;;2.78;;
17193;SDS011;8713;48.388;10.928;2023-06-22T01:47:40;5.22;;;2.95;;
17193;SDS011;8713;48.388;10.928;2023-06-22T01:48:52;6.95;;;3.17;;
17193;SDS011;8713;48.388;10.928;2023-06-22T01:50:02;8.27;;;3.55;;
17193;SDS011;8713;48.388;10.928;2023-06-22T01:51:12;6.20;;;3.83;;
17193;SDS011;8713;48.388;10.928;2023-06-22T01:52:22;4.75;;;3.15;;
17193;SDS011;8713;48.388;10.928;2023-06-22T01:53:32;6.50;;;3.10;;
17193;SDS011;8713;48.388;10.928;2023-06-22T01:54:41;7.05;;;3.08;;
17193;SDS011;8713;48.388;10.928;2023-06-22T01:55:51;4.13;;;2.72;;
17193;SDS011;8713;48.388;10.928;2023-06-22T01:57:01;5.93;;;2.83;;
17193;SDS011;8713;48.388;10.928;2023-06-22T01:58:10;6.32;;;3.15;;
17193;SDS011;8713;48.388;10.928;2023-06-22T01:59:24;5.13;;;2.70;;
17193;SDS011;8713;48.388;10.928;2023-06-22T02:00:48;6.22;;;3.03;;
17193;SDS011;8713;48.388;10.928;2023-06-22T02:02:02;6.28;;;2.70;;
17193;SDS011;8713;48.388;10.928;2023-06-22T02:03:18;4.32;;;3.33;;
17193;SDS011;8713;48.388;10.928;2023-06-22T02:04:36;8.45;;;3.28;;
17193;SDS011;8713;48.388;10.928;2023-06-22T02:05:58;6.97;;;2.83;;
17193;SDS011;8713;48.388;10.928;2023-06-22T02:07:14;5.47;;;2.72;;
17193;SDS011;8713;48.388;10.928;2023-06-22T02:08:28;7.05;;;3.20;;
17193;SDS011;8713;48.388;10.928;2023-06-22T02:09:45;5.35;;;2.90;;
17193;SDS011;8713;48.388;10.928;2023-06-22T02:10:56;6.88;;;2.78;;
17193;SDS011;8713;48.388;10.928;2023-06-22T02:12:07;5.78;;;3.00;;
17193;SDS011;8713;48.388;10.928;2023-06-22T02:13:18;7.90;;;3.17;;
17193;SDS011;8713;48.388;10.928;2023-06-22T02:14:28;5.25;;;2.80;;
17193;SDS011;8713;48.388;10.928;2023-06-22T02:15:38;6.50;;;3.07;;
17193;SDS011;8713;48.388;10.928;2023-06-22T02:16:48;5.72;;;3.20;;
17193;SDS011;8713;48.388;10.928;2023-06-22T02:17:58;6.03;;;3.13;;
17193;SDS011;8713;48.388;10.928;2023-06-22T02:19:08;8.82;;;2.90;;
17193;SDS011;8713;48.388;10.928;2023-06-22T02:20:17;7.95;;;3.20;;
17193;SDS011;8713;48.388;10.928;2023-06-22T02:21:27;6.18;;;3.35;;
17193;SDS011;8713;48.388;10.928;2023-06-22T02:22:36;5.50;;;3.28;;
17193;SDS011;8713;48.388;10.928;2023-06-22T02:23:46;6.97;;;3.22;;
17193;SDS011;8713;48.388;10.928;2023-06-22T02:24:56;7.68;;;3.17;;
17193;SDS011;8713;48.388;10.928;2023-06-22T02:26:08;6.47;;;2.97;;
17193;SDS011;8713;48.388;10.928;2023-06-22T02:27:18;7.93;;;3.58;;
17193;SDS011;8713;48.388;10.928;2023-06-22T02:28:27;7.03;;;4.60;;
17193;SDS011;8713;48.388;10.928;2023-06-22T02:29:37;8.05;;;4.70;;
17193;SDS011;8713;48.388;10.928;2023-06-22T02:30:47;8.48;;;4.68;;
17193;SDS011;8713;48.388;10.928;2023-06-22T02:31:56;8.30;;;4.82;;
17193;SDS011;8713;48.388;10.928;2023-06-22T02:33:06;9.35;;;6.10;;
17193;SDS011;8713;48.388;10.928;2023-06-22T02:34:16;10.63;;;7.07;;
17193;SDS011;8713;48.388;10.928;2023-06-22T02:35:28;10.07;;;5.40;;
17193;SDS011;8713;48.388;10.928;2023-06-22T02:36:41;9.23;;;5.68;;
17193;SDS011;8713;48.388;10.928;2023-06-22T02:38:00;8.70;;;6.22;;
17193;SDS011;8713;48.388;10.928;2023-06-22T02:39:11;11.98;;;7.82;;
17193;SDS011;8713;48.388;10.928;2023-06-22T02:40:21;11.23;;;7.90;;
17193;SDS011;8713;48.388;10.928;2023-06-22T02:41:30;17.65;;;11.75;;
17193;SDS011;8713;48.388;10.928;2023-06-22T02:42:40;14.27;;;10.52;;
17193;SDS011;8713;48.388;10.928;2023-06-22T02:43:49;11.90;;;8.48;;
17193;SDS011;8713;48.388;10.928;2023-06-22T02:45:02;9.80;;;6.93;;
17193;SDS011;8713;48.388;10.928;2023-06-22T02:46:12;8.15;;;5.75;;
17193;SDS011;8713;48.388;10.928;2023-06-22T02:47:23;6.63;;;4.35;;
17193;SDS011;8713;48.388;10.928;2023-06-22T02:48:33;6.63;;;3.97;;
17193;SDS011;8713;48.388;10.928;2023-06-22T02:49:43;7.28;;;4.00;;
17193;SDS011;8713;48.388;10.928;2023-06-22T02:50:55;6.22;;;3.50;;
17193;SDS011;8713;48.388;10.928;2023-06-22T02:52:05;7.30;;;3.50;;
17193;SDS011;8713;48.388;10.928;2023-06-22T02:53:15;5.35;;;3.15;;
17193;SDS011;8713;48.388;10.928;2023-06-22T02:54:28;8.45;;;3.67;;
17193;SDS011;8713;48.388;10.928;2023-06-22T02:55:38;6.00;;;3.47;;
17193;SDS011;8713;48.388;10.928;2023-06-22T02:56:48;6.10;;;3.25;;
17193;SDS011;8713;48.388;10.928;2023-06-22T02:58:00;6.55;;;3.47;;
17193;SDS011;8713;48.388;10.928;2023-06-22T02:59:15;9.88;;;3.50;;
17193;SDS011;8713;48.388;10.928;2023-06-22T03:00:27;6.03;;;3.15;;
17193;SDS011;8713;48.388;10.928;2023-06-22T03:01:39;8.90;;;3.50;;
17193;SDS011;8713;48.388;10.928;2023-06-22T03:02:56;11.38;;;3.40;;
17193;SDS011;8713;48.388;10.928;2023-06-22T03:04:07;5.95;;;3.20;;
17193;SDS011;8713;48.388;10.928;2023-06-22T03:05:17;7.20;;;3.00;;
17193;SDS011;8713;48.388;10.928;2023-06-22T03:06:28;7.70;;;3.60;;
17193;SDS011;8713;48.388;10.928;2023-06-22T03:07:41;5.65;;;3.00;;
17193;SDS011;8713;48.388;10.928;2023-06-22T03:08:52;5.82;;;3.67;;
17193;SDS011;8713;48.388;10.928;2023-06-22T03:10:02;8.57;;;4.18;;
17193;SDS011;8713;48.388;10.928;2023-06-22T03:11:12;6.43;;;4.35;;
17193;SDS011;8713;48.388;10.928;2023-06-22T03:12:21;6.70;;;4.55;;
17193;SDS011;8713;48.388;10.928;2023-06-22T03:13:37;7.82;;;4.55;;
17193;SDS011;8713;48.388;10.928;2023-06-22T03:14:46;7.45;;;4.53;;
17193;SDS011;8713;48.388;10.928;2023-06-22T03:15:57;7.95;;;3.72;;
17193;SDS011;8713;48.388;10.928;2023-06-22T03:17:07;8.00;;;3.95;;
17193;SDS011;8713;48.388;10.928;2023-06-22T03:18:20;6.15;;;3.88;;
17193;SDS011;8713;48.388;10.928;2023-06-22T03:19:31;9.02;;;3.35;;
17193;SDS011;8713;48.388;10.928;2023-06-22T03:20:41;6.43;;;3.60;;
17193;SDS011;8713;48.388;10.928;2023-06-22T03:21:52;10.38;;;3.70;;
17193;SDS011;8713;48.388;10.928;2023-06-22T03:23:02;6.18;;;3.53;;
17193;SDS011;8713;48.388;10.928;2023-06-22T03:24:12;8.88;;;3.40;;
17193;SDS011;8713;48.388;10.928;2023-06-22T03:25:22;7.68;;;3.30;;
17193;SDS011;8713;48.388;10.928;2023-06-22T03:26:32;6.25;;;4.03;;
17193;SDS011;8713;48.388;10.928;2023-06-22T03:27:43;7.20;;;4.43;;
17193;SDS011;8713;48.388;10.928;2023-06-22T03:28:53;7.72;;;5.97;;
17193;SDS011;8713;48.388;10.928;2023-06-22T03:30:03;8.05;;;5.60;;
17193;SDS011;8713;48.388;10.928;2023-06-22T03:31:15;11.85;;;6.45;;
17193;SDS011;8713;48.388;10.928;2023-06-22T03:32:25;15.05;;;6.50;;
17193;SDS011;8713;48.388;10.928;2023-06-22T03:33:37;9.75;;;6.50;;
17193;SDS011;8713;48.388;10.928;2023-06-22T03:34:46;15.10;;;7.78;;
17193;SDS011;8713;48.388;10.928;2023-06-22T03:35:57;13.32;;;7.55;;
17193;SDS011;8713;48.388;10.928;2023-06-22T03:37:07;11.95;;;6.68;;
17193;SDS011;8713;48.388;10.928;2023-06-22T03:38:17;10.10;;;6.00;;
17193;SDS011;8713;48.388;10.928;2023-06-22T03:39:27;8.98;;;4.18;;
17193;SDS011;8713;48.388;10.928;2023-06-22T03:40:37;8.70;;;4.25;;
17193;SDS011;8713;48.388;10.928;2023-06-22T03:41:47;9.35;;;3.90;;
17193;SDS011;8713;48.388;10.928;2023-06-22T03:42:56;7.65;;;3.88;;
17193;SDS011;8713;48.388;10.928;2023-06-22T03:44:06;6.25;;;3.63;;
17193;SDS011;8713;48.388;10.928;2023-06-22T03:45:20;6.38;;;3.42;;
17193;SDS011;8713;48.388;10.928;2023-06-22T03:46:30;6.90;;;3.30;;
17193;SDS011;8713;48.388;10.928;2023-06-22T03:47:39;6.20;;;3.30;;
17193;SDS011;8713;48.388;10.928;2023-06-22T03:48:48;6.25;;;3.63;;
17193;SDS011;8713;48.388;10.928;2023-06-22T03:49:58;7.65;;;3.50;;
17193;SDS011;8713;48.388;10.928;2023-06-22T03:51:07;6.60;;;3.65;;
17193;SDS011;8713;48.388;10.928;2023-06-22T03:52:17;6.07;;;4.32;;
17193;SDS011;8713;48.388;10.928;2023-06-22T03:53:26;6.15;;;4.43;;
17193;SDS011;8713;48.388;10.928;2023-06-22T03:54:36;7.03;;;4.78;;
17193;SDS011;8713;48.388;10.928;2023-06-22T03:55:49;8.35;;;5.03;;
17193;SDS011;8713;48.388;10.928;2023-06-22T03:57:00;8.13;;;4.80;;
17193;SDS011;8713;48.388;10.928;2023-06-22T03:58:10;9.02;;;4.57;;
17193;SDS011;8713;48.388;10.928;2023-06-22T03:59:21;8.98;;;3.58;;
17193;SDS011;8713;48.388;10.928;2023-06-22T04:00:31;8.43;;;3.35;;
17193;SDS011;8713;48.388;10.928;2023-06-22T04:01:41;4.82;;;3.20;;
17193;SDS011;8713;48.388;10.928;2023-06-22T04:02:50;7.95;;;4.00;;
17193;SDS011;8713;48.388;10.928;2023-06-22T04:04:00;6.25;;;3.03;;
17193;SDS011;8713;48.388;10.928;2023-06-22T04:05:10;5.32;;;3.17;;
17193;SDS011;8713;48.388;10.928;2023-06-22T04:06:19;7.18;;;3.47;;
17193;SDS011;8713;48.388;10.928;2023-06-22T04:07:29;4.38;;;3.15;;
17193;SDS011;8713;48.388;10.928;2023-06-22T04:08:38;6.65;;;3.25;;
17193;SDS011;8713;48.388;10.928;2023-06-22T04:09:48;5.78;;;3.05;;
17193;SDS011;8713;48.388;10.928;2023-06-22T04:10:58;8.38;;;3.58;;
17193;SDS011;8713;48.388;10.928;2023-06-22T04:12:08;9.05;;;3.35;;
17193;SDS011;8713;48.388;10.928;2023-06-22T04:13:18;6.25;;;3.50;;
17193;SDS011;8713;48.388;10.928;2023-06-22T04:14:28;7.32;;;3.45;;
17193;SDS011;8713;48.388;10.928;2023-06-22T04:15:38;5.35;;;3.08;;
17193;SDS011;8713;48.388;10.928;2023-06-22T04:16:47;6.40;;;3.45;;
17193;SDS011;8713;48.388;10.928;2023-06-22T04:17:56;6.13;;;3.47;;
17193;SDS011;8713;48.388;10.928;2023-06-22T04:19:06;7.63;;;3.90;;
17193;SDS011;8713;48.388;10.928;2023-06-22T04:20:16;6.80;;;3.30;;
17193;SDS011;8713;48.388;10.928;2023-06-22T04:21:25;6.95;;;3.60;;
17193;SDS011;8713;48.388;10.928;2023-06-22T04:22:34;6.97;;;3.47;;
17193;SDS011;8713;48.388;10.928;2023-06-22T04:23:44;6.93;;;3.28;;
17193;SDS011;8713;48.388;10.928;2023-06-22T04:24:54;8.68;;;3.28;;
17193;SDS011;8713;48.388;10.928;2023-06-22T04:26:04;6.03;;;3.28;;
17193;SDS011;8713;48.388;10.928;2023-06-22T04:27:14;7.75;;;3.50;;
17193;SDS011;8713;48.388;10.928;2023-06-22T04:28:23;6.55;;;3.22;;
17193;SDS011;8713;48.388;10.928;2023-06-22T04:29:33;5.88;;;3.20;;
17193;SDS011;8713;48.388;10.928;2023-06-22T04:30:42;6.40;;;3.42;;
17193;SDS011;8713;48.388;10.928;2023-06-22T04:31:55;9.60;;;3.60;;
17193;SDS011;8713;48.388;10.928;2023-06-22T04:33:07;8.45;;;3.50;;
17193;SDS011;8713;48.388;10.928;2023-06-22T04:34:18;6.95;;;3.33;;
17193;SDS011;8713;48.388;10.928;2023-06-22T04:35:27;5.93;;;2.92;;
17193;SDS011;8713;48.388;10.928;2023-06-22T04:36:38;6.85;;;3.42;;
17193;SDS011;8713;48.388;10.928;2023-06-22T04:37:49;7.13;;;3.38;;
17193;SDS011;8713;48.388;10.928;2023-06-22T04:38:59;8.35;;;3.42;;
17193;SDS011;8713;48.388;10.928;2023-06-22T04:40:08;6.57;;;3.30;;
17193;SDS011;8713;48.388;10.928;2023-06-22T04:41:18;6.88;;;3.67;;
17193;SDS011;8713;48.388;10.928;2023-06-22T04:42:33;6.22;;;3.30;;
17193;SDS011;8713;48.388;10.928;2023-06-22T04:43:44;5.68;;;3.17;;
17193;SDS011;8713;48.388;10.928;2023-06-22T04:45:03;10.38;;;3.50;;
17193;SDS011;8713;48.388;10.928;2023-06-22T04:46:13;6.00;;;3.05;;
17193;SDS011;8713;48.388;10.928;2023-06-22T04:47:23;6.25;;;2.97;;
17193;SDS011;8713;48.388;10.928;2023-06-22T04:48:32;6.55;;;2.88;;
17193;SDS011;8713;48.388;10.928;2023-06-22T04:49:42;6.93;;;3.30;;
17193;SDS011;8713;48.388;10.928;2023-06-22T04:50:52;10.65;;;3.17;;
17193;SDS011;8713;48.388;10.928;2023-06-22T04:52:02;8.60;;;3.40;;
17193;SDS011;8713;48.388;10.928;2023-06-22T04:53:13;7.20;;;3.25;;
17193;SDS011;8713;48.388;10.928;2023-06-22T04:54:23;7.00;;;3.33;;
17193;SDS011;8713;48.388;10.928;2023-06-22T04:55:33;6.55;;;3.50;;
17193;SDS011;8713;48.388;10.928;2023-06-22T04:56:43;8.43;;;3.70;;
17193;SDS011;8713;48.388;10.928;2023-06-22T04:57:55;5.10;;;2.92;;
17193;SDS011;8713;48.388;10.928;2023-06-22T04:59:05;6.65;;;3.20;;
17193;SDS011;8713;48.388;10.928;2023-06-22T05:00:17;7.57;;;3.30;;
17193;SDS011;8713;48.388;10.928;2023-06-22T05:01:28;6.45;;;3.22;;
17193;SDS011;8713;48.388;10.928;2023-06-22T05:02:40;7.78;;;3.35;;
17193;SDS011;8713;48.388;10.928;2023-06-22T05:03:49;7.70;;;3.45;;
17193;SDS011;8713;48.388;10.928;2023-06-22T05:04:59;6.38;;;3.08;;
17193;SDS011;8713;48.388;10.928;2023-06-22T05:06:09;7.97;;;3.53;;
17193;SDS011;8713;48.388;10.928;2023-06-22T05:07:19;7.38;;;3.15;;
17193;SDS011;8713;48.388;10.928;2023-06-22T05:08:28;6.95;;;3.42;;
17193;SDS011;8713;48.388;10.928;2023-06-22T05:09:38;5.35;;;3.20;;
17193;SDS011;8713;48.388;10.928;2023-06-22T05:10:48;7.97;;;3.63;;
17193;SDS011;8713;48.388;10.928;2023-06-22T05:11:58;7.50;;;3.42;;
17193;SDS011;8713;48.388;10.928;2023-06-22T05:13:08;4.93;;;2.97;;
17193;SDS011;8713;48.388;10.928;2023-06-22T05:14:18;5.43;;;3.20;;
17193;SDS011;8713;48.388;10.928;2023-06-22T05:15:28;9.57;;;3.15;;
17193;SDS011;8713;48.388;10.928;2023-06-22T05:16:40;6.22;;;3.08;;
17193;SDS011;8713;48.388;10.928;2023-06-22T05:17:51;8.00;;;3.13;;
17193;SDS011;8713;48.388;10.928;2023-06-22T05:19:00;5.70;;;3.40;;
17193;SDS011;8713;48.388;10.928;2023-06-22T05:20:12;8.98;;;3.92;;
17193;SDS011;8713;48.388;10.928;2023-06-22T05:21:22;15.40;;;4.88;;
17193;SDS011;8713;48.388;10.928;2023-06-22T05:22:34;7.75;;;3.78;;
17193;SDS011;8713;48.388;10.928;2023-06-22T05:23:43;8.00;;;3.58;;
17193;SDS011;8713;48.388;10.928;2023-06-22T05:24:53;8.75;;;3.50;;
17193;SDS011;8713;48.388;10.928;2023-06-22T05:26:02;7.40;;;3.35;;
17193;SDS011;8713;48.388;10.928;2023-06-22T05:27:13;7.07;;;3.20;;
17193;SDS011;8713;48.388;10.928;2023-06-22T05:28:23;10.27;;;3.20;;
17193;SDS011;8713;48.388;10.928;2023-06-22T05:29:32;10.45;;;3.35;;
17193;SDS011;8713;48.388;10.928;2023-06-22T05:30:42;8.30;;;3.42;;
17193;SDS011;8713;48.388;10.928;2023-06-22T05:31:51;5.38;;;3.00;;
17193;SDS011;8713;48.388;10.928;2023-06-22T05:33:01;7.60;;;3.00;;
17193;SDS011;8713;48.388;10.928;2023-06-22T05:34:10;6.30;;;2.97;;
17193;SDS011;8713;48.388;10.928;2023-06-22T05:35:20;6.18;;;2.72;;
17193;SDS011;8713;48.388;10.928;2023-06-22T05:36:29;6.90;;;3.05;;
17193;SDS011;8713;48.388;10.928;2023-06-22T05:37:38;9.43;;;3.22;;
17193;SDS011;8713;48.388;10.928;2023-06-22T05:38:48;6.28;;;3.40;;
17193;SDS011;8713;48.388;10.928;2023-06-22T05:39:58;6.25;;;3.22;;
17193;SDS011;8713;48.388;10.928;2023-06-22T05:41:07;6.70;;;3.10;;
17193;SDS011;8713;48.388;10.928;2023-06-22T05:42:18;9.85;;;3.50;;
17193;SDS011;8713;48.388;10.928;2023-06-22T05:43:28;5.95;;;3.53;;
17193;SDS011;8713;48.388;10.928;2023-06-22T05:44:38;6.93;;;3.53;;
17193;SDS011;8713;48.388;10.928;2023-06-22T05:45:49;8.10;;;3.40;;
17193;SDS011;8713;48.388;10.928;2023-06-22T05:46:58;6.15;;;3.40;;
17193;SDS011;8713;48.388;10.928;2023-06-22T05:48:08;8.15;;;3.38;;
17193;SDS011;8713;48.388;10.928;2023-06-22T05:49:17;6.03;;;3.08;;
17193;SDS011;8713;48.388;10.928;2023-06-22T05:50:27;8.50;;;3.45;;
17193;SDS011;8713;48.388;10.928;2023-06-22T05:51:36;10.02;;;3.72;;
17193;SDS011;8713;48.388;10.928;2023-06-22T05:52:46;8.35;;;3.53;;
17193;SDS011;8713;48.388;10.928;2023-06-22T05:53:56;9.65;;;3.78;;
17193;SDS011;8713;48.388;10.928;2023-06-22T05:55:06;8.75;;;3.60;;
17193;SDS011;8713;48.388;10.928;2023-06-22T05:56:16;7.72;;;3.40;;
17193;SDS011;8713;48.388;10.928;2023-06-22T05:57:26;6.50;;;3.83;;
17193;SDS011;8713;48.388;10.928;2023-06-22T05:58:36;8.57;;;3.83;;
17193;SDS011;8713;48.388;10.928;2023-06-22T05:59:45;8.85;;;3.33;;
17193;SDS011;8713;48.388;10.928;2023-06-22T06:00:55;9.02;;;3.35;;
17193;SDS011;8713;48.388;10.928;2023-06-22T06:02:05;6.13;;;3.38;;
17193;SDS011;8713;48.388;10.928;2023-06-22T06:03:14;6.18;;;3.22;;
17193;SDS011;8713;48.388;10.928;2023-06-22T06:04:26;5.47;;;3.08;;
17193;SDS011;8713;48.388;10.928;2023-06-22T06:05:39;5.90;;;3.28;;
17193;SDS011;8713;48.388;10.928;2023-06-22T06:06:48;5.80;;;2.90;;
17193;SDS011;8713;48.388;10.928;2023-06-22T06:07:59;7.47;;;3.08;;
17193;SDS011;8713;48.388;10.928;2023-06-22T06:09:09;5.88;;;2.95;;
17193;SDS011;8713;48.388;10.928;2023-06-22T06:10:20;5.63;;;3.20;;
17193;SDS011;8713;48.388;10.928;2023-06-22T06:11:30;7.45;;;3.08;;
17193;SDS011;8713;48.388;10.928;2023-06-22T06:12:39;6.53;;;3.28;;
17193;SDS011;8713;48.388;10.928;2023-06-22T06:13:48;6.72;;;3.22;;
17193;SDS011;8713;48.388;10.928;2023-06-22T06:14:58;8.68;;;3.03;;
17193;SDS011;8713;48.388;10.928;2023-06-22T06:16:08;8.85;;;3.60;;
17193;SDS011;8713;48.388;10.928;2023-06-22T06:17:17;6.88;;;3.63;;
17193;SDS011;8713;48.388;10.928;2023-06-22T06:18:27;9.73;;;4.07;;
17193;SDS011;8713;48.388;10.928;2023-06-22T06:19:36;9.20;;;4.10;;
17193;SDS011;8713;48.388;10.928;2023-06-22T06:20:47;6.80;;;3.97;;
17193;SDS011;8713;48.388;10.928;2023-06-22T06:21:57;9.73;;;4.03;;
17193;SDS011;8713;48.388;10.928;2023-06-22T06:23:06;7.25;;;3.50;;
17193;SDS011;8713;48.388;10.928;2023-06-22T06:24:16;6.72;;;3.40;;
17193;SDS011;8713;48.388;10.928;2023-06-22T06:25:25;5.78;;;3.22;;
17193;SDS011;8713;48.388;10.928;2023-06-22T06:26:35;9.68;;;3.47;;
17193;SDS011;8713;48.388;10.928;2023-06-22T06:27:46;8.23;;;3.75;;
17193;SDS011;8713;48.388;10.928;2023-06-22T06:28:56;8.82;;;3.80;;
17193;SDS011;8713;48.388;10.928;2023-06-22T06:30:06;6.95;;;3.40;;
17193;SDS011;8713;48.388;10.928;2023-06-22T06:31:16;7.53;;;3.33;;
17193;SDS011;8713;48.388;10.928;2023-06-22T06:32:27;7.82;;;3.65;;
17193;SDS011;8713;48.388;10.928;2023-06-22T06:33:36;7.10;;;3.33;;
17193;SDS011;8713;48.388;10.928;2023-06-22T06:34:46;6.22;;;3.25;;
17193;SDS011;8713;48.388;10.928;2023-06-22T06:35:56;10.25;;;3.75;;
17193;SDS011;8713;48.388;10.928;2023-06-22T06:37:05;8.70;;;3.30;;
17193;SDS011;8713;48.388;10.928;2023-06-22T06:38:15;10.05;;;3.47;;
17193;SDS011;8713;48.388;10.928;2023-06-22T06:39:25;6.70;;;3.38;;
17193;SDS011;8713;48.388;10.928;2023-06-22T06:40:34;7.45;;;3.38;;
17193;SDS011;8713;48.388;10.928;2023-06-22T06:41:44;7.68;;;3.78;;
17193;SDS011;8713;48.388;10.928;2023-06-22T06:42:58;7.35;;;3.63;;
17193;SDS011;8713;48.388;10.928;2023-06-22T06:44:07;7.10;;;3.42;;
17193;SDS011;8713;48.388;10.928;2023-06-22T06:45:18;11.15;;;3.25;;
17193;SDS011;8713;48.388;10.928;2023-06-22T06:46:31;7.78;;;3.38;;
17193;SDS011;8713;48.388;10.928;2023-06-22T06:47:40;8.25;;;3.60;;
17193;SDS011;8713;48.388;10.928;2023-06-22T06:48:50;8.15;;;3.65;;
17193;SDS011;8713;48.388;10.928;2023-06-22T06:50:00;6.70;;;3.35;;
17193;SDS011;8713;48.388;10.928;2023-06-22T06:51:09;7.20;;;3.80;;
17193;SDS011;8713;48.388;10.928;2023-06-22T06:52:19;7.63;;;4.22;;
17193;SDS011;8713;48.388;10.928;2023-06-22T06:53:29;10.63;;;3.67;;
17193;SDS011;8713;48.388;10.928;2023-06-22T06:54:38;6.75;;;3.63;;
17193;SDS011;8713;48.388;10.928;2023-06-22T06:55:48;8.00;;;3.60;;
17193;SDS011;8713;48.388;10.928;2023-06-22T06:56:58;6.93;;;3.80;;
17193;SDS011;8713;48.388;10.928;2023-06-22T06:58:07;8.95;;;3.80;;
17193;SDS011;8713;48.388;10.928;2023-06-22T06:59:18;8.23;;;3.83;;
17193;SDS011;8713;48.388;10.928;2023-06-22T07:00:28;9.60;;;3.85;;
17193;SDS011;8713;48.388;10.928;2023-06-22T07:01:38;7.65;;;3.40;;
17193;SDS011;8713;48.388;10.928;2023-06-22T07:02:47;9.32;;;3.45;;
17193;SDS011;8713;48.388;10.928;2023-06-22T07:03:57;7.03;;;3.22;;
17193;SDS011;8713;48.388;10.928;2023-06-22T07:05:07;8.02;;;3.33;;
17193;SDS011;8713;48.388;10.928;2023-06-22T07:06:17;10.82;;;3.55;;
17193;SDS011;8713;48.388;10.928;2023-06-22T07:07:27;8.82;;;3.25;;
17193;SDS011;8713;48.388;10.928;2023-06-22T07:08:36;9.85;;;3.50;;
17193;SDS011;8713;48.388;10.928;2023-06-22T07:09:46;9.63;;;3.28;;